createdAt,value
2019-03-28T08:05:11.810Z,101612.08
2019-03-28T08:07:47.169Z,101620.03
2019-03-28T08:10:19.349Z,101623.13
2019-03-28T08:12:56.279Z,101613.03
2019-03-28T08:15:27.456Z,101614.34
2019-03-28T08:17:58.706Z,101624.94
2019-03-28T08:20:29.709Z,101620.52
2019-03-28T08:23:00.643Z,101619.19
2019-03-28T08:25:31.664Z,101635.06
2019-03-28T08:28:02.636Z,101628.00
2019-03-28T08:30:36.405Z,101627.14
2019-03-28T08:33:08.510Z,101620.97
2019-03-28T08:35:39.588Z,101630.66
2019-03-28T08:38:10.638Z,101634.17
2019-03-28T08:40:43.438Z,101632.43
2019-03-28T08:43:15.934Z,101629.80
2019-03-28T08:45:46.840Z,101628.04
2019-03-28T08:48:19.374Z,101631.54
2019-03-28T08:50:51.950Z,101638.58
2019-03-28T08:53:22.915Z,101640.80
2019-03-28T08:55:53.874Z,101635.50
2019-03-28T08:58:24.783Z,101637.20
2019-03-28T09:00:56.831Z,101633.26
2019-03-28T09:03:30.642Z,101629.28
2019-03-28T09:06:02.466Z,101632.33
2019-03-28T09:08:33.491Z,101639.85
2019-03-28T09:11:04.454Z,101636.75
2019-03-28T09:13:35.311Z,101631.49
2019-03-28T09:16:06.280Z,101633.20
2019-03-28T09:18:37.160Z,101631.82
2019-03-28T09:21:08.116Z,101633.17
2019-03-28T09:23:39.041Z,101633.20
2019-03-28T09:26:11.529Z,101624.76
2019-03-28T09:28:42.618Z,101632.08
2019-03-28T09:31:19.719Z,101618.62
2019-03-28T09:33:46.125Z,101616.86
2019-03-28T09:36:17.140Z,101602.38
2019-03-28T09:38:47.880Z,101607.44
2019-03-28T09:41:18.786Z,101595.56
2019-03-28T09:43:55.533Z,101593.66
2019-03-28T09:46:22.244Z,101599.06
2019-03-28T09:48:53.159Z,101586.62
2019-03-28T09:51:24.098Z,101597.43
2019-03-28T09:53:54.941Z,101591.56
2019-03-28T09:56:25.817Z,101595.08
2019-03-28T09:58:56.686Z,101587.10
2019-03-28T10:01:27.742Z,101595.23
2019-03-28T10:03:58.610Z,101603.74
2019-03-28T10:06:30.251Z,101603.75
2019-03-28T10:09:05.376Z,101610.75
2019-03-28T10:11:36.390Z,101609.68
2019-03-28T10:14:07.820Z,101614.55
2019-03-28T10:16:40.349Z,101612.73
2019-03-28T10:19:15.547Z,101614.52
2019-03-28T10:21:46.659Z,101611.81
2019-03-28T10:24:17.387Z,101604.08
2019-03-28T10:26:48.386Z,101610.57
2019-03-28T10:29:19.249Z,101604.73
2019-03-28T10:31:50.047Z,101600.71
2019-03-28T10:34:20.885Z,101605.34
2019-03-28T10:36:51.903Z,101618.55
2019-03-28T10:39:22.807Z,101626.44
2019-03-28T10:41:54.718Z,101629.69
2019-03-28T10:44:25.880Z,101613.66
2019-03-28T10:46:57.066Z,101613.10
2019-03-28T10:49:28.071Z,101604.73
2019-03-28T10:51:58.865Z,101600.20
2019-03-28T10:54:29.711Z,101596.33
2019-03-28T10:57:12.887Z,101597.63
2019-03-28T10:59:33.199Z,101593.88
2019-03-28T11:02:04.157Z,101593.51
2019-03-28T11:04:35.237Z,101593.44
2019-03-28T11:07:07.928Z,101587.41
2019-03-28T11:09:38.880Z,101580.73
2019-03-28T11:12:09.677Z,101574.14
2019-03-28T11:14:40.613Z,101583.67
2019-03-28T11:17:11.479Z,101573.54
2019-03-28T11:19:42.493Z,101583.45
2019-03-28T11:22:13.229Z,101580.36
2019-03-28T11:24:46.350Z,101574.81
2019-03-28T11:27:16.607Z,101576.09
2019-03-28T11:29:47.454Z,101571.72
2019-03-28T11:32:18.751Z,101576.73
2019-03-28T11:34:49.741Z,101573.47
2019-03-28T11:37:26.314Z,101569.37
2019-03-28T11:39:53.248Z,101572.42
2019-03-28T11:42:24.121Z,101567.14
2019-03-28T11:44:55.023Z,101567.53
2019-03-28T11:47:25.813Z,101563.80
2019-03-28T11:49:56.716Z,101551.42
2019-03-28T11:52:28.576Z,101565.95
2019-03-28T11:54:59.432Z,101562.70
2019-03-28T11:57:30.236Z,101559.23
2019-03-28T12:00:01.479Z,101559.37
2019-03-28T12:02:33.402Z,101554.46
2019-03-28T12:05:05.387Z,101547.84
2019-03-28T12:07:37.176Z,101544.88
2019-03-28T12:10:10.186Z,101539.33
2019-03-28T12:12:41.052Z,101551.59
2019-03-28T12:15:12.064Z,101549.58
2019-03-28T12:17:42.902Z,101546.69
2019-03-28T12:20:13.994Z,101542.77
2019-03-28T12:22:45.830Z,101535.83
2019-03-28T12:25:16.644Z,101540.16
2019-03-28T12:30:50.030Z,101541.17
2019-03-28T12:33:20.901Z,101539.45
2019-03-28T12:35:52.528Z,101543.43
2019-03-28T12:38:23.591Z,101536.46
2019-03-28T12:40:54.555Z,101544.66
2019-03-28T12:43:25.423Z,101546.58
2019-03-28T12:45:57.252Z,101538.45
2019-03-28T12:48:28.157Z,101535.91
2019-03-28T12:51:01.000Z,101527.21
2019-03-28T12:53:32.057Z,101525.98
2019-03-28T12:56:03.031Z,101536.14
2019-03-28T12:58:33.807Z,101533.14
2019-03-28T13:01:04.904Z,101538.33
2019-03-28T13:03:45.282Z,101534.78
2019-03-28T13:06:08.369Z,101533.72
2019-03-28T13:08:41.116Z,101529.62
2019-03-28T13:11:12.208Z,101524.56
2019-03-28T13:13:43.105Z,101524.58
2019-03-28T13:16:14.089Z,101534.86
2019-03-28T13:18:44.978Z,101532.14
2019-03-28T13:21:15.985Z,101531.21
2019-03-28T13:23:46.731Z,101529.16
2019-03-28T13:26:17.568Z,101538.30
2019-03-28T13:28:48.374Z,101534.41
2019-03-28T13:31:19.315Z,101537.48
2019-03-28T13:33:50.192Z,101535.37
2019-03-28T13:36:21.134Z,101541.36
2019-03-28T13:38:53.574Z,101531.16
2019-03-28T13:41:25.499Z,101535.02
2019-03-28T13:43:56.752Z,101533.80
2019-03-28T13:46:32.564Z,101533.87
2019-03-28T13:49:04.679Z,101534.20
2019-03-28T13:51:35.627Z,101527.19
2019-03-28T13:54:06.529Z,101523.29
2019-03-28T13:56:38.616Z,101523.16
2019-03-28T13:59:09.689Z,101526.29
2019-03-28T14:01:40.558Z,101525.03
2019-03-28T14:04:11.369Z,101526.34
2019-03-28T14:06:42.294Z,101522.06
2019-03-28T14:09:14.043Z,101519.73
2019-03-28T14:11:45.070Z,101521.34
2019-03-28T14:14:15.946Z,101519.52
2019-03-28T14:16:53.178Z,101526.53
2019-03-28T14:19:23.346Z,101529.16
2019-03-28T14:21:54.277Z,101524.77
2019-03-28T14:24:25.184Z,101526.96
2019-03-28T14:26:56.118Z,101527.79
2019-03-28T14:29:30.106Z,101531.05
2019-03-28T14:32:01.809Z,101518.05
2019-03-28T14:34:32.837Z,101525.00
2019-03-28T14:37:03.657Z,101526.76
2019-03-28T14:39:35.380Z,101526.00
2019-03-28T14:42:06.477Z,101530.19
2019-03-28T14:44:37.280Z,101522.47
2019-03-28T14:47:09.169Z,101529.42
2019-03-28T14:49:40.063Z,101530.06
2019-03-28T14:52:10.984Z,101526.83
2019-03-28T14:54:41.854Z,101528.08
2019-03-28T14:57:13.493Z,101527.97
2019-03-28T14:59:46.010Z,101526.25
2019-03-28T15:02:17.088Z,101528.72
2019-03-28T15:04:48.032Z,101532.88
2019-03-28T15:07:18.904Z,101527.88
2019-03-28T15:09:50.617Z,101538.87
2019-03-28T15:12:21.528Z,101541.36
2019-03-28T15:14:52.400Z,101544.14
2019-03-28T15:17:24.372Z,101543.17
2019-03-28T15:19:55.235Z,101539.95
2019-03-28T15:22:26.205Z,101545.16
2019-03-28T15:24:57.723Z,101542.73
2019-03-28T15:27:28.699Z,101542.95
2019-03-28T15:29:59.589Z,101544.81
2019-03-28T15:32:30.558Z,101537.99
2019-03-28T15:35:01.363Z,101551.33
2019-03-28T15:37:32.259Z,101545.70
2019-03-28T15:40:04.332Z,101548.80
2019-03-28T15:42:35.232Z,101550.21
2019-03-28T15:45:09.048Z,101551.89
2019-03-28T15:47:39.989Z,101557.23
2019-03-28T15:50:10.763Z,101559.98
2019-03-28T15:52:41.600Z,101567.11
2019-03-28T15:55:14.714Z,101564.91
2019-03-28T15:57:44.979Z,101562.30
2019-03-28T16:00:15.840Z,101565.87
2019-03-28T16:02:48.384Z,101564.60
2019-03-28T16:05:19.327Z,101564.60
2019-03-28T16:07:50.303Z,101567.80
2019-03-28T16:10:21.952Z,101566.94
2019-03-28T16:12:52.987Z,101566.05
2019-03-28T16:15:23.772Z,101577.56
2019-03-28T16:17:57.549Z,101576.22
2019-03-28T16:20:27.199Z,101576.66
2019-03-28T16:22:58.300Z,101574.47
2019-03-28T16:25:29.309Z,101580.72
2019-03-28T16:28:00.318Z,101574.09
2019-03-28T16:30:35.682Z,101572.77
2019-03-28T16:33:07.689Z,101576.77
2019-03-28T16:35:38.563Z,101578.56
2019-03-28T16:38:09.548Z,101579.47
2019-03-28T16:40:40.502Z,101585.62
2019-03-28T16:43:11.412Z,101588.73
2019-03-28T16:45:42.300Z,101586.08
2019-03-28T16:48:13.321Z,101575.94
2019-03-28T16:50:44.184Z,101580.38
2019-03-28T16:53:15.079Z,101582.59
2019-03-28T16:56:17.127Z,101583.48
2019-03-28T16:58:45.872Z,101589.63
2019-03-28T17:01:16.835Z,101590.97
2019-03-28T17:03:47.968Z,101593.16
2019-03-28T17:06:18.869Z,101596.27
2019-03-28T17:08:49.877Z,101603.75
2019-03-28T17:11:23.803Z,101611.28
2019-03-28T17:13:56.736Z,101613.47
2019-03-28T17:16:28.633Z,101611.25
2019-03-28T17:19:02.949Z,101615.23
2019-03-28T17:21:34.863Z,101623.63
2019-03-28T17:24:05.800Z,101626.26
2019-03-28T17:26:36.694Z,101631.55
2019-03-28T17:29:07.640Z,101632.88
2019-03-28T17:31:38.634Z,101634.65
2019-03-28T17:34:09.820Z,101640.80
2019-03-28T17:36:40.691Z,101647.45
2019-03-28T17:39:11.695Z,101646.98
2019-03-28T17:41:42.646Z,101644.78
2019-03-28T17:44:14.670Z,101646.09
2019-03-28T17:46:45.614Z,101647.86
2019-03-28T17:49:16.626Z,101654.93
2019-03-28T17:51:47.600Z,101647.88
2019-03-28T17:54:20.159Z,101653.59
2019-03-28T17:56:50.975Z,101663.31
2019-03-28T17:59:22.032Z,101653.62
2019-03-28T18:01:54.471Z,101660.64
2019-03-28T18:04:25.402Z,101659.77
2019-03-28T18:06:57.989Z,101655.34
2019-03-28T18:09:31.356Z,101658.42
2019-03-28T18:12:04.635Z,101656.20
2019-03-28T18:14:35.723Z,101657.09
2019-03-28T18:17:06.503Z,101655.33
2019-03-28T18:19:38.954Z,101653.55
2019-03-28T18:22:09.950Z,101657.11
2019-03-28T18:24:43.983Z,101662.84
2019-03-28T18:27:17.045Z,101659.73
2019-03-28T18:29:51.075Z,101661.93
2019-03-28T18:32:21.997Z,101661.47
2019-03-28T18:35:04.644Z,101658.80
2019-03-28T18:37:28.405Z,101661.89
2019-03-28T18:40:04.561Z,101664.08
2019-03-28T18:42:37.571Z,101671.16
2019-03-28T18:45:08.675Z,101673.80
2019-03-28T18:47:39.553Z,101677.30
2019-03-28T18:50:10.478Z,101678.61
2019-03-28T18:52:45.349Z,101683.89
2019-03-28T18:55:16.798Z,101675.06
2019-03-28T18:57:47.782Z,101683.82
2019-03-28T19:00:19.577Z,101679.00
2019-03-28T19:02:53.403Z,101675.89
2019-03-28T19:05:27.802Z,101690.44
2019-03-28T19:08:01.667Z,101690.41
2019-03-28T19:10:34.303Z,101699.66
2019-03-28T19:13:08.703Z,101699.19
2019-03-28T19:15:41.757Z,101689.03
2019-03-28T19:18:12.599Z,101688.62
2019-03-28T19:20:45.739Z,101691.67
2019-03-28T19:23:20.858Z,101697.40
2019-03-28T19:25:55.374Z,101698.31
2019-03-28T19:28:29.133Z,101701.27
2019-03-28T19:31:00.999Z,101699.05
2019-03-28T19:33:45.567Z,101692.86
2019-03-28T19:36:16.766Z,101688.91
2019-03-28T19:38:47.970Z,101691.11
2019-03-28T19:41:20.717Z,101691.54
2019-03-28T19:43:51.766Z,101685.77
2019-03-28T19:46:29.513Z,101684.83
2019-03-28T19:48:59.869Z,101690.50
2019-03-28T19:51:30.971Z,101696.58
2019-03-28T19:54:05.820Z,101694.78
2019-03-28T19:56:42.738Z,101700.95
2019-03-28T19:59:13.534Z,101703.12
2019-03-28T20:01:44.405Z,101711.97
2019-03-28T20:04:15.436Z,101710.20
2019-03-28T20:06:50.883Z,101718.57
2019-03-28T20:09:25.312Z,101722.95
2019-03-28T20:12:02.893Z,101725.08
2019-03-28T20:14:34.536Z,101729.05
2019-03-28T20:17:08.058Z,101725.11
2019-03-28T20:19:42.716Z,101729.05
2019-03-28T20:22:17.775Z,101728.16
2019-03-28T20:24:48.993Z,101729.45
2019-03-28T20:27:23.052Z,101726.33
2019-03-28T20:30:00.941Z,101734.70
2019-03-28T20:32:32.286Z,101743.06
2019-03-28T20:35:05.398Z,101732.50
2019-03-28T20:37:37.843Z,101730.25
2019-03-28T20:40:08.978Z,101722.77
2019-03-28T20:42:40.160Z,101724.45
2019-03-28T20:45:11.222Z,101727.58
2019-03-28T20:47:42.409Z,101734.17
2019-03-28T20:50:13.472Z,101733.25
2019-03-28T20:52:44.798Z,101728.81
2019-03-28T20:55:18.910Z,101733.25
2019-03-28T20:57:50.649Z,101729.70
2019-03-28T21:00:36.964Z,101720.80
2019-03-28T21:03:08.074Z,101715.52
2019-03-28T21:05:39.092Z,101714.64
2019-03-28T21:08:10.296Z,101706.23
2019-03-28T21:10:43.023Z,101704.47
2019-03-28T21:13:13.890Z,101699.98
2019-03-28T21:15:45.987Z,101698.23
2019-03-28T21:18:23.200Z,101703.52
2019-03-28T21:20:59.761Z,101697.34
2019-03-28T21:23:32.083Z,101697.00
2019-03-28T21:26:02.951Z,101703.16
2019-03-28T21:28:46.441Z,101698.23
2019-03-28T21:31:11.599Z,101700.92
2019-03-28T21:33:46.013Z,101699.11
2019-03-28T21:36:29.033Z,101699.02
2019-03-28T21:38:50.422Z,101697.21
2019-03-28T21:41:21.376Z,101687.97
2019-03-28T21:43:52.436Z,101688.89
2019-03-28T21:46:25.005Z,101692.45
2019-03-28T21:48:56.076Z,101691.39
2019-03-28T21:51:27.027Z,101697.05
2019-03-28T21:53:58.280Z,101698.86
2019-03-28T21:56:29.983Z,101704.63
2019-03-28T21:59:01.090Z,101688.75
2019-03-28T22:01:33.771Z,101699.20
2019-03-28T22:04:04.889Z,101698.81
2019-03-28T22:06:42.794Z,101700.58
2019-03-28T22:09:08.627Z,101703.70
2019-03-28T22:11:41.138Z,101706.83
2019-03-28T22:14:14.050Z,101705.41
2019-03-28T22:16:49.927Z,101703.26
2019-03-28T22:19:26.665Z,101700.63
2019-03-28T22:21:59.737Z,101708.05
2019-03-28T22:24:30.747Z,101709.36
2019-03-28T22:27:01.766Z,101712.83
2019-03-28T22:29:33.101Z,101710.63
2019-03-28T22:32:11.591Z,101706.23
2019-03-28T22:34:44.247Z,101702.16
2019-03-28T22:37:15.277Z,101703.87
2019-03-28T22:39:46.286Z,101710.39
2019-03-28T22:42:17.092Z,101715.66
2019-03-28T22:44:54.075Z,101717.81
2019-03-28T22:47:26.524Z,101716.91
2019-03-28T22:49:59.255Z,101716.00
2019-03-28T22:52:30.138Z,101722.69
2019-03-28T22:55:07.201Z,101718.69
2019-03-28T22:57:38.092Z,101724.89
2019-03-28T23:00:11.520Z,101728.86
2019-03-28T23:02:43.990Z,101730.62
2019-03-28T23:05:14.925Z,101724.03
2019-03-28T23:07:49.030Z,101719.69
2019-03-28T23:10:21.069Z,101713.91
2019-03-28T23:12:52.015Z,101709.95
2019-03-28T23:15:22.838Z,101715.23
2019-03-28T23:17:54.480Z,101712.97
2019-03-28T23:20:25.433Z,101711.58
2019-03-28T23:22:56.283Z,101708.08
2019-03-28T23:25:27.167Z,101709.26
2019-03-28T23:27:58.065Z,101716.28
2019-03-28T23:30:28.955Z,101715.42
2019-03-28T23:32:59.789Z,101723.46
2019-03-28T23:35:30.734Z,101721.64
2019-03-28T23:38:01.629Z,101716.91
2019-03-28T23:40:32.455Z,101716.98
2019-03-28T23:43:03.221Z,101717.74
2019-03-28T23:45:36.123Z,101713.78
2019-03-28T23:48:06.891Z,101712.84
2019-03-28T23:50:37.711Z,101723.91
2019-03-28T23:53:08.974Z,101719.87
2019-03-28T23:55:39.940Z,101712.78
2019-03-28T23:58:10.720Z,101714.98
